createdAt,value
2018-08-30T00:00:54.856Z,99.90
2018-08-30T00:03:23.323Z,99.90
2018-08-30T00:05:51.943Z,99.90
2018-08-30T00:08:20.771Z,99.90
2018-08-30T00:10:50.159Z,99.90
2018-08-30T00:13:19.432Z,99.90
2018-08-30T00:15:48.460Z,99.90
2018-08-30T00:18:17.087Z,99.90
2018-08-30T00:20:45.580Z,99.90
2018-08-30T00:23:14.198Z,99.90
2018-08-30T00:25:43.099Z,99.90
2018-08-30T00:28:11.798Z,99.90
2018-08-30T00:30:40.544Z,99.90
2018-08-30T00:33:09.176Z,99.90
2018-08-30T00:35:38.712Z,99.90
2018-08-30T00:38:07.407Z,99.90
2018-08-30T00:40:36.872Z,99.90
2018-08-30T00:43:05.514Z,99.90
2018-08-30T00:45:34.802Z,99.90
2018-08-30T00:48:03.654Z,99.90
2018-08-30T00:50:32.385Z,99.90
2018-08-30T00:53:01.008Z,99.90
2018-08-30T00:55:29.589Z,99.90
2018-08-30T00:57:58.815Z,99.90
2018-08-30T01:00:27.676Z,99.90
2018-08-30T01:02:56.141Z,99.90
2018-08-30T01:05:24.808Z,99.90
2018-08-30T01:07:53.272Z,99.90
2018-08-30T01:10:22.562Z,99.90
2018-08-30T01:12:55.887Z,99.90
2018-08-30T01:15:26.237Z,99.90
2018-08-30T01:17:55.504Z,99.90
2018-08-30T01:20:24.071Z,99.90
2018-08-30T01:22:52.626Z,99.90
2018-08-30T01:25:21.174Z,99.90
2018-08-30T01:27:50.088Z,99.90
2018-08-30T01:30:18.816Z,99.90
2018-08-30T01:32:47.667Z,99.90
2018-08-30T01:35:17.071Z,99.90
2018-08-30T01:37:45.733Z,99.90
2018-08-30T01:40:14.182Z,99.90
2018-08-30T01:42:42.803Z,99.90
2018-08-30T01:45:11.386Z,99.90
2018-08-30T01:47:40.073Z,99.90
2018-08-30T01:50:09.444Z,99.90
2018-08-30T01:52:38.195Z,99.90
2018-08-30T01:55:06.855Z,99.90
2018-08-30T01:57:35.520Z,99.90
2018-08-30T02:00:04.921Z,99.90
2018-08-30T02:02:33.627Z,99.90
2018-08-30T02:05:02.208Z,99.90
2018-08-30T02:07:31.345Z,99.90
2018-08-30T02:09:59.957Z,99.90
2018-08-30T02:12:28.446Z,99.90
2018-08-30T02:14:57.684Z,99.90
2018-08-30T02:17:26.647Z,99.90
2018-08-30T02:19:56.156Z,99.90
2018-08-30T02:22:25.392Z,99.90
2018-08-30T02:24:54.412Z,99.90
2018-08-30T02:27:23.072Z,99.90
2018-08-30T02:29:51.838Z,99.90
2018-08-30T02:32:20.432Z,99.90
2018-08-30T02:34:49.214Z,99.90
2018-08-30T02:37:18.527Z,99.90
2018-08-30T02:39:47.003Z,99.90
2018-08-30T02:42:16.256Z,99.90
2018-08-30T02:44:45.379Z,99.90
2018-08-30T02:47:14.723Z,99.90
2018-08-30T02:49:43.646Z,99.90
2018-08-30T02:52:12.890Z,99.90
2018-08-30T02:54:42.295Z,99.90
2018-08-30T02:57:11.545Z,99.90
2018-08-30T02:59:40.567Z,99.90
2018-08-30T03:02:09.917Z,99.90
2018-08-30T03:04:39.314Z,99.90
2018-08-30T03:07:07.884Z,99.90
2018-08-30T03:09:37.552Z,99.90
2018-08-30T03:12:06.741Z,99.90
2018-08-30T03:14:35.830Z,99.90
2018-08-30T03:17:04.475Z,99.90
2018-08-30T03:19:33.503Z,99.90
2018-08-30T03:22:02.373Z,99.90
2018-08-30T03:24:30.892Z,99.90
2018-08-30T03:26:59.976Z,99.90
2018-08-30T03:29:29.493Z,99.90
2018-08-30T03:31:58.496Z,99.90
2018-08-30T03:34:27.574Z,99.90
2018-08-30T03:36:56.740Z,99.90
2018-08-30T03:39:25.427Z,99.90
2018-08-30T03:41:54.117Z,99.90
2018-08-30T03:44:24.681Z,99.90
2018-08-30T03:46:53.434Z,99.90
2018-08-30T03:49:22.042Z,99.90
2018-08-30T03:51:50.524Z,99.90
2018-08-30T03:54:19.723Z,99.90
2018-08-30T03:56:48.655Z,99.90
2018-08-30T03:59:18.263Z,99.90
2018-08-30T04:01:46.984Z,99.90
2018-08-30T04:04:16.448Z,99.90
2018-08-30T04:06:45.828Z,99.90
2018-08-30T04:09:15.054Z,99.90
2018-08-30T04:11:43.659Z,99.90
2018-08-30T04:14:12.269Z,99.90
2018-08-30T04:16:41.814Z,99.90
2018-08-30T04:19:10.640Z,99.90
2018-08-30T04:21:39.412Z,99.90
2018-08-30T04:24:09.266Z,99.90
2018-08-30T04:26:37.883Z,99.90
2018-08-30T04:29:06.414Z,99.90
2018-08-30T04:31:35.105Z,99.90
2018-08-30T04:34:04.139Z,99.90
2018-08-30T04:36:33.429Z,99.90
2018-08-30T04:39:02.670Z,99.90
2018-08-30T04:41:31.919Z,99.90
2018-08-30T04:44:00.376Z,99.90
2018-08-30T04:46:28.916Z,99.90
2018-08-30T04:48:57.419Z,99.90
2018-08-30T04:51:26.779Z,99.90
2018-08-30T04:53:55.460Z,99.90
2018-08-30T04:56:24.079Z,99.90
2018-08-30T04:58:53.439Z,99.90
2018-08-30T05:01:22.830Z,99.90
2018-08-30T05:03:51.499Z,99.90
2018-08-30T05:06:20.122Z,99.90
2018-08-30T05:08:48.755Z,99.90
2018-08-30T05:11:17.520Z,99.90
2018-08-30T05:13:46.571Z,99.90
2018-08-30T05:16:15.138Z,99.90
2018-08-30T05:18:43.672Z,99.90
2018-08-30T05:21:12.173Z,99.90
2018-08-30T05:23:41.467Z,99.90
2018-08-30T05:26:09.955Z,99.90
2018-08-30T05:28:38.592Z,99.90
2018-08-30T05:31:07.174Z,99.90
2018-08-30T05:33:35.700Z,99.90
2018-08-30T05:36:04.405Z,99.90
2018-08-30T05:38:34.287Z,99.90
2018-08-30T05:41:02.872Z,99.90
2018-08-30T05:43:31.572Z,99.90
2018-08-30T05:46:00.925Z,99.90
2018-08-30T05:48:30.194Z,99.90
2018-08-30T05:50:59.427Z,99.90
2018-08-30T05:53:28.096Z,99.90
2018-08-30T05:55:57.448Z,99.90
2018-08-30T05:58:26.094Z,99.90
2018-08-30T06:00:54.608Z,99.90
2018-08-30T06:03:23.128Z,99.90
2018-08-30T06:05:51.733Z,99.90
2018-08-30T06:08:21.087Z,99.90
2018-08-30T06:10:50.440Z,99.90
2018-08-30T06:13:19.192Z,99.90
2018-08-30T06:15:48.324Z,99.90
2018-08-30T06:18:16.982Z,99.90
2018-08-30T06:20:46.305Z,99.90
2018-08-30T06:23:14.836Z,99.90
2018-08-30T06:25:43.536Z,99.90
2018-08-30T06:28:12.190Z,99.90
2018-08-30T06:30:40.968Z,99.90
2018-08-30T06:33:09.510Z,99.90
2018-08-30T06:35:38.221Z,99.90
2018-08-30T06:38:06.797Z,99.90
2018-08-30T06:40:35.332Z,99.90
2018-08-30T06:43:04.121Z,99.90
2018-08-30T06:45:33.360Z,99.90
2018-08-30T06:48:02.112Z,99.90
2018-08-30T06:50:30.796Z,99.90
2018-08-30T06:53:00.370Z,99.90
2018-08-30T06:55:28.999Z,99.90
2018-08-30T06:57:57.659Z,99.90
2018-08-30T07:00:26.133Z,99.90
2018-08-30T07:02:55.084Z,99.90
2018-08-30T07:05:23.660Z,99.90
2018-08-30T07:07:52.341Z,99.90
2018-08-30T07:10:21.829Z,99.90
2018-08-30T07:12:50.435Z,99.90
2018-08-30T07:15:19.321Z,99.90
2018-08-30T07:17:48.368Z,99.90
2018-08-30T07:20:19.092Z,99.90
2018-08-30T07:22:47.962Z,99.90
2018-08-30T07:25:17.276Z,99.90
2018-08-30T07:27:46.149Z,99.90
2018-08-30T07:30:15.244Z,99.90
2018-08-30T07:32:44.194Z,99.90
2018-08-30T07:35:12.998Z,99.90
2018-08-30T07:37:41.575Z,99.90
2018-08-30T07:40:10.424Z,99.90
2018-08-30T07:42:39.908Z,99.90
2018-08-30T07:45:08.634Z,99.90
2018-08-30T07:47:37.192Z,99.90
2018-08-30T07:50:06.544Z,99.90
2018-08-30T07:52:35.256Z,99.90
2018-08-30T07:55:04.029Z,99.90
2018-08-30T07:57:32.869Z,99.90
2018-08-30T08:00:01.377Z,99.90
2018-08-30T08:02:29.879Z,99.90
2018-08-30T08:04:58.695Z,99.90
2018-08-30T08:07:27.591Z,99.90
2018-08-30T08:09:56.200Z,99.90
2018-08-30T08:12:25.458Z,99.90
2018-08-30T08:14:54.756Z,99.90
2018-08-30T08:17:23.515Z,99.90
2018-08-30T08:19:52.320Z,99.90
2018-08-30T08:22:20.846Z,99.90
2018-08-30T08:24:49.648Z,99.90
2018-08-30T08:27:18.260Z,99.90
2018-08-30T08:29:47.179Z,99.90
2018-08-30T08:32:15.904Z,99.90
2018-08-30T08:34:46.554Z,99.90
2018-08-30T08:37:15.472Z,99.90
2018-08-30T08:39:44.134Z,99.90
2018-08-30T08:42:13.200Z,99.90
2018-08-30T08:44:41.923Z,99.90
2018-08-30T08:47:10.700Z,99.90
2018-08-30T08:49:39.932Z,99.90
2018-08-30T08:52:08.553Z,99.90
2018-08-30T08:54:37.265Z,99.90
2018-08-30T08:57:06.308Z,99.90
2018-08-30T08:59:35.044Z,99.90
2018-08-30T09:02:03.655Z,99.90
2018-08-30T09:04:32.336Z,99.90
2018-08-30T09:07:00.929Z,99.90
2018-08-30T09:09:29.465Z,99.90
2018-08-30T09:11:58.048Z,99.90
2018-08-30T09:14:26.756Z,99.90
2018-08-30T09:16:55.667Z,99.90
2018-08-30T09:19:24.675Z,99.90
2018-08-30T09:21:53.280Z,99.90
2018-08-30T09:24:21.845Z,99.90
2018-08-30T09:26:50.475Z,99.90
2018-08-30T09:29:19.611Z,99.90
2018-08-30T09:31:49.092Z,99.90
2018-08-30T09:34:18.416Z,99.90
2018-08-30T09:36:47.364Z,99.90
2018-08-30T09:39:16.018Z,99.90
2018-08-30T09:41:44.609Z,99.90
2018-08-30T09:44:13.446Z,99.90
2018-08-30T09:46:42.283Z,99.90
2018-08-30T09:49:11.656Z,99.90
2018-08-30T09:51:40.801Z,99.90
2018-08-30T09:54:09.400Z,99.90
2018-08-30T09:56:38.246Z,99.90
2018-08-30T09:59:07.111Z,99.90
2018-08-30T10:01:40.951Z,99.90
2018-08-30T10:04:09.816Z,99.90
2018-08-30T10:06:39.001Z,99.90
2018-08-30T10:09:09.627Z,99.90
2018-08-30T10:11:38.963Z,99.90
2018-08-30T10:14:07.610Z,99.90
2018-08-30T10:16:37.163Z,99.90
2018-08-30T10:19:05.763Z,99.90
2018-08-30T10:21:35.445Z,99.90
2018-08-30T10:24:04.528Z,99.90
2018-08-30T10:26:33.180Z,99.90
2018-08-30T10:29:02.059Z,99.90
2018-08-30T10:31:31.208Z,99.90
2018-08-30T10:33:59.884Z,99.90
2018-08-30T10:36:28.678Z,99.90
2018-08-30T10:38:57.844Z,99.90
2018-08-30T10:41:26.491Z,99.90
2018-08-30T10:43:55.092Z,99.90
2018-08-30T10:46:24.661Z,99.90
2018-08-30T10:48:53.715Z,99.90
2018-08-30T10:51:23.121Z,99.90
2018-08-30T10:53:51.625Z,99.90
2018-08-30T10:56:20.321Z,99.90
2018-08-30T10:58:48.753Z,99.90
2018-08-30T11:01:17.282Z,99.90
2018-08-30T11:03:46.243Z,99.90
2018-08-30T11:06:15.044Z,99.90
2018-08-30T11:08:43.540Z,99.90
2018-08-30T11:11:12.304Z,99.90
2018-08-30T11:13:40.958Z,99.90
2018-08-30T11:16:09.424Z,99.90
2018-08-30T11:18:38.004Z,99.90
2018-08-30T11:21:06.762Z,99.90
2018-08-30T11:23:35.605Z,99.90
2018-08-30T11:26:04.373Z,99.90
2018-08-30T11:28:33.782Z,99.90
2018-08-30T11:31:02.578Z,99.50
2018-08-30T11:33:31.268Z,99.90
2018-08-30T11:35:59.777Z,99.50
2018-08-30T11:38:28.452Z,99.90
2018-08-30T11:40:57.780Z,99.90
2018-08-30T11:43:26.768Z,99.90
2018-08-30T11:45:55.284Z,99.90
2018-08-30T11:48:23.958Z,99.90
2018-08-30T11:50:52.765Z,99.90
2018-08-30T11:53:21.227Z,99.90
2018-08-30T11:55:49.773Z,98.60
2018-08-30T11:58:18.410Z,97.70
2018-08-30T12:00:47.938Z,97.30
2018-08-30T12:03:16.902Z,97.10
2018-08-30T12:05:45.541Z,98.10
2018-08-30T12:08:14.336Z,98.60
2018-08-30T12:10:43.129Z,96.80
2018-08-30T12:13:11.731Z,96.40
2018-08-30T12:15:40.958Z,96.50
2018-08-30T12:18:10.190Z,96.20
2018-08-30T12:20:38.955Z,96.20
2018-08-30T12:23:07.440Z,96.80
2018-08-30T12:25:36.231Z,96.40
2018-08-30T12:28:04.859Z,95.90
2018-08-30T12:30:33.486Z,95.20
2018-08-30T12:33:02.325Z,94.40
2018-08-30T12:35:31.009Z,93.40
2018-08-30T12:38:00.315Z,93.70
2018-08-30T12:40:29.083Z,94.80
2018-08-30T12:45:35.178Z,95.70
2018-08-30T12:48:03.942Z,95.40
2018-08-30T12:50:33.202Z,95.60
2018-08-30T12:53:02.542Z,95.80
2018-08-30T12:55:31.038Z,95.90
2018-08-30T12:57:59.810Z,97.10
2018-08-30T13:00:29.149Z,97.00
2018-08-30T13:02:57.801Z,97.30
2018-08-30T13:05:26.728Z,97.70
2018-08-30T13:07:56.008Z,97.70
2018-08-30T13:10:25.168Z,97.40
2018-08-30T13:12:53.794Z,97.60
2018-08-30T13:15:22.743Z,96.50
2018-08-30T13:17:51.183Z,96.90
2018-08-30T13:20:20.002Z,96.30
2018-08-30T13:22:49.002Z,96.40
2018-08-30T13:25:17.685Z,96.40
2018-08-30T13:27:46.277Z,95.90
2018-08-30T13:30:14.817Z,95.70
2018-08-30T13:32:43.349Z,94.60
2018-08-30T13:35:11.916Z,95.10
2018-08-30T13:37:40.579Z,95.10
2018-08-30T13:40:10.215Z,95.00
2018-08-30T13:42:39.143Z,94.50
2018-08-30T13:45:08.752Z,94.20
2018-08-30T13:47:37.558Z,93.50
2018-08-30T13:50:06.559Z,92.70
2018-08-30T13:52:35.344Z,92.30
2018-08-30T13:55:03.924Z,92.70
2018-08-30T13:57:32.916Z,94.30
2018-08-30T14:00:01.337Z,95.50
2018-08-30T14:02:29.934Z,96.60
2018-08-30T14:04:59.124Z,96.70
2018-08-30T14:07:28.772Z,96.80
2018-08-30T14:09:57.382Z,97.20
2018-08-30T14:12:26.014Z,96.50
2018-08-30T14:14:55.085Z,96.10
2018-08-30T14:17:23.787Z,96.70
2018-08-30T14:19:52.389Z,95.80
2018-08-30T14:22:21.629Z,95.70
2018-08-30T14:24:50.972Z,95.50
2018-08-30T14:27:20.060Z,95.20
2018-08-30T14:29:48.984Z,95.20
2018-08-30T14:32:17.518Z,95.40
2018-08-30T14:34:46.904Z,95.10
2018-08-30T14:37:15.587Z,95.20
2018-08-30T14:39:44.325Z,95.70
2018-08-30T14:42:13.410Z,97.20
2018-08-30T14:44:42.351Z,98.40
2018-08-30T14:47:11.333Z,99.70
2018-08-30T14:49:39.757Z,99.90
2018-08-30T14:52:08.649Z,99.90
2018-08-30T14:54:37.343Z,99.90
2018-08-30T14:57:06.258Z,99.90
2018-08-30T14:59:34.999Z,99.90
2018-08-30T15:02:03.917Z,99.90
2018-08-30T15:04:33.186Z,99.90
2018-08-30T15:07:01.711Z,99.90
2018-08-30T15:09:30.925Z,99.90
2018-08-30T15:12:00.186Z,99.90
2018-08-30T15:14:28.768Z,99.90
2018-08-30T15:16:57.406Z,99.90
2018-08-30T15:19:26.963Z,99.90
2018-08-30T15:21:55.855Z,99.90
2018-08-30T15:24:24.507Z,99.90
2018-08-30T15:26:53.280Z,99.80
2018-08-30T15:29:22.187Z,99.30
2018-08-30T15:31:50.886Z,98.80
2018-08-30T15:34:20.345Z,98.00
2018-08-30T15:36:48.826Z,97.00
2018-08-30T15:39:17.661Z,97.20
2018-08-30T15:41:46.307Z,97.80
2018-08-30T15:44:15.210Z,98.10
2018-08-30T15:46:44.350Z,97.50
2018-08-30T15:49:12.995Z,97.90
2018-08-30T15:51:41.722Z,97.70
2018-08-30T15:54:10.350Z,97.40
2018-08-30T15:56:38.929Z,96.80
2018-08-30T15:59:07.568Z,95.40
2018-08-30T16:01:37.028Z,93.70
2018-08-30T16:04:06.045Z,93.20
2018-08-30T16:06:35.459Z,93.20
2018-08-30T16:09:04.837Z,93.00
2018-08-30T16:11:33.787Z,92.60
2018-08-30T16:14:02.712Z,92.70
2018-08-30T16:16:31.768Z,93.20
2018-08-30T16:19:00.438Z,92.30
2018-08-30T16:21:29.492Z,92.90
2018-08-30T16:23:58.589Z,93.90
2018-08-30T16:26:27.159Z,94.50
2018-08-30T16:28:55.803Z,95.60
2018-08-30T16:31:24.733Z,95.80
2018-08-30T16:33:53.867Z,95.50
2018-08-30T16:36:22.662Z,95.80
2018-08-30T16:38:51.237Z,94.50
2018-08-30T16:41:20.959Z,93.40
2018-08-30T16:43:49.547Z,92.00
2018-08-30T16:46:18.953Z,91.70
2018-08-30T16:48:47.862Z,90.20
2018-08-30T16:51:16.384Z,88.30
2018-08-30T16:53:45.290Z,89.90
2018-08-30T16:56:13.960Z,88.10
2018-08-30T16:58:42.979Z,89.30
2018-08-30T17:01:11.988Z,90.60
2018-08-30T17:03:41.239Z,91.50
2018-08-30T17:06:09.743Z,93.40
2018-08-30T17:08:39.039Z,94.70
2018-08-30T17:11:08.359Z,95.70
2018-08-30T17:13:37.101Z,96.00
2018-08-30T17:16:06.726Z,97.30
2018-08-30T17:18:35.572Z,97.60
2018-08-30T17:21:04.299Z,98.50
2018-08-30T17:23:33.027Z,99.40
2018-08-30T17:26:01.513Z,99.60
2018-08-30T17:28:30.108Z,99.90
2018-08-30T17:30:58.749Z,99.90
2018-08-30T17:33:27.499Z,99.90
2018-08-30T17:35:56.127Z,99.90
2018-08-30T17:38:25.077Z,99.90
2018-08-30T17:40:54.064Z,99.90
2018-08-30T17:43:22.616Z,99.90
2018-08-30T17:45:51.517Z,99.90
2018-08-30T17:48:20.287Z,99.90
2018-08-30T17:50:49.031Z,99.90
2018-08-30T17:53:17.684Z,99.90
2018-08-30T17:55:46.591Z,99.90
2018-08-30T17:58:15.450Z,99.90
2018-08-30T18:00:44.897Z,99.90
2018-08-30T18:03:13.481Z,99.90
2018-08-30T18:05:42.226Z,99.90
2018-08-30T18:08:11.718Z,99.90
2018-08-30T18:10:40.471Z,99.90
2018-08-30T18:13:09.059Z,99.90
2018-08-30T18:15:37.670Z,99.90
2018-08-30T18:18:06.646Z,99.90
2018-08-30T18:20:35.102Z,99.90
2018-08-30T18:23:04.089Z,99.90
2018-08-30T18:25:33.156Z,99.90
2018-08-30T18:28:02.291Z,99.90
2018-08-30T18:30:31.632Z,99.90
2018-08-30T18:33:00.349Z,99.90
2018-08-30T18:35:29.129Z,99.90
2018-08-30T18:37:58.236Z,99.90
2018-08-30T18:40:26.961Z,99.90
2018-08-30T18:42:55.986Z,99.90
2018-08-30T18:45:25.035Z,99.90
2018-08-30T18:47:53.956Z,99.90
2018-08-30T18:50:23.506Z,99.90
2018-08-30T18:52:52.431Z,99.90
2018-08-30T18:55:21.273Z,99.90
2018-08-30T18:57:50.135Z,99.90
2018-08-30T19:00:20.109Z,99.90
2018-08-30T19:02:49.522Z,99.90
2018-08-30T19:05:18.143Z,99.90
2018-08-30T19:07:47.565Z,99.90
2018-08-30T19:10:16.333Z,99.90
2018-08-30T19:12:45.217Z,99.90
2018-08-30T19:15:19.871Z,99.90
2018-08-30T19:17:54.026Z,99.90
2018-08-30T19:20:22.736Z,99.90
2018-08-30T19:22:51.408Z,99.90
2018-08-30T19:25:26.580Z,99.90
2018-08-30T19:27:55.775Z,99.90
2018-08-30T19:30:30.741Z,99.90
2018-08-30T19:32:59.919Z,99.90
2018-08-30T19:35:33.943Z,99.90
2018-08-30T19:38:03.301Z,99.90
2018-08-30T19:40:37.413Z,99.90
2018-08-30T19:43:06.353Z,99.90
2018-08-30T19:45:35.702Z,99.90
2018-08-30T19:48:04.522Z,99.90
2018-08-30T19:50:33.329Z,99.90
2018-08-30T19:53:02.198Z,99.90
2018-08-30T19:55:30.881Z,99.90
2018-08-30T19:57:59.624Z,99.90
2018-08-30T20:00:29.022Z,99.90
2018-08-30T20:02:57.787Z,99.90
2018-08-30T20:05:26.689Z,99.90
2018-08-30T20:07:55.949Z,99.90
2018-08-30T20:10:24.674Z,99.90
2018-08-30T20:12:54.246Z,99.90
2018-08-30T20:15:23.320Z,99.90
2018-08-30T20:17:52.821Z,99.90
2018-08-30T20:20:21.396Z,99.90
2018-08-30T20:22:50.068Z,99.90
2018-08-30T20:25:19.144Z,99.90
2018-08-30T20:27:48.092Z,99.90
2018-08-30T20:30:16.798Z,99.90
2018-08-30T20:32:45.901Z,99.90
2018-08-30T20:35:14.584Z,99.90
2018-08-30T20:37:43.428Z,99.90
2018-08-30T20:40:12.168Z,99.90
2018-08-30T20:42:41.941Z,99.90
2018-08-30T20:45:10.848Z,99.90
2018-08-30T20:47:39.389Z,99.90
2018-08-30T20:50:08.717Z,99.90
2018-08-30T20:52:37.625Z,99.90
2018-08-30T20:55:07.104Z,99.90
2018-08-30T20:57:36.371Z,99.90
2018-08-30T21:00:05.461Z,99.90
2018-08-30T21:02:34.910Z,99.90
2018-08-30T21:05:03.693Z,99.90
2018-08-30T21:07:33.139Z,99.90
2018-08-30T21:10:01.963Z,99.90
2018-08-30T21:12:30.509Z,99.90
2018-08-30T21:14:59.757Z,99.90
2018-08-30T21:17:28.749Z,99.90
2018-08-30T21:19:57.549Z,99.90
2018-08-30T21:22:26.537Z,99.90
2018-08-30T21:24:55.928Z,99.90
2018-08-30T21:27:24.636Z,99.90
2018-08-30T21:29:53.300Z,99.90
2018-08-30T21:32:22.593Z,99.90
2018-08-30T21:34:51.350Z,99.90
2018-08-30T21:37:20.005Z,99.90
2018-08-30T21:39:49.104Z,99.90
2018-08-30T21:42:17.760Z,99.90
2018-08-30T21:44:46.595Z,99.90
2018-08-30T21:47:15.336Z,99.90
2018-08-30T21:49:44.018Z,99.90
2018-08-30T21:52:13.365Z,99.90
2018-08-30T21:54:42.475Z,99.90
2018-08-30T21:57:11.078Z,99.90
2018-08-30T21:59:39.997Z,99.90
2018-08-30T22:02:09.218Z,99.90
2018-08-30T22:04:38.455Z,99.90
2018-08-30T22:07:07.622Z,99.90
2018-08-30T22:09:36.474Z,99.90
2018-08-30T22:12:05.120Z,99.90
2018-08-30T22:14:33.895Z,99.90
2018-08-30T22:17:02.640Z,99.90
2018-08-30T22:19:31.216Z,99.90
2018-08-30T22:21:59.988Z,99.90
2018-08-30T22:24:29.326Z,99.90
2018-08-30T22:26:57.935Z,99.90
2018-08-30T22:29:26.585Z,99.90
2018-08-30T22:31:55.200Z,99.90
2018-08-30T22:34:23.823Z,99.90
2018-08-30T22:36:52.558Z,99.90
2018-08-30T22:39:21.263Z,99.90
2018-08-30T22:41:49.912Z,99.90
2018-08-30T22:44:19.085Z,99.90
2018-08-30T22:46:48.484Z,99.90
2018-08-30T22:49:17.252Z,99.90
2018-08-30T22:51:45.827Z,99.90
2018-08-30T22:54:14.435Z,99.90
2018-08-30T22:56:42.977Z,99.90
2018-08-30T22:59:12.138Z,99.90
2018-08-30T23:01:40.673Z,99.90
2018-08-30T23:04:09.466Z,99.90
2018-08-30T23:06:38.149Z,99.90
2018-08-30T23:09:08.545Z,99.90
2018-08-30T23:11:37.345Z,99.90
2018-08-30T23:14:06.259Z,99.90
2018-08-30T23:16:35.236Z,99.90
2018-08-30T23:19:04.316Z,99.90
2018-08-30T23:21:33.755Z,99.90
2018-08-30T23:24:02.324Z,99.90
2018-08-30T23:26:31.376Z,99.90
2018-08-30T23:29:00.291Z,99.90
2018-08-30T23:31:28.847Z,99.90
2018-08-30T23:33:57.455Z,99.90
2018-08-30T23:36:26.106Z,99.90
2018-08-30T23:38:54.860Z,99.90
2018-08-30T23:41:23.627Z,99.90
2018-08-30T23:43:52.712Z,99.90
2018-08-30T23:46:21.997Z,99.90
2018-08-30T23:48:50.796Z,99.90
2018-08-30T23:51:19.385Z,99.90
2018-08-30T23:53:47.851Z,99.90
2018-08-30T23:56:16.872Z,99.90
2018-08-30T23:58:56.959Z,99.90
